createdAt,value
2019-01-31T00:02:24.909Z,0.81
2019-01-31T00:05:00.581Z,1.25
2019-01-31T00:08:46.008Z,0.88
2019-01-31T00:11:26.003Z,1.25
2019-01-31T00:14:06.557Z,0.81
2019-01-31T00:16:42.820Z,1.06
2019-01-31T00:21:21.298Z,1.06
2019-01-31T00:24:04.747Z,1.12
2019-01-31T00:26:43.183Z,0.88
2019-01-31T00:30:19.692Z,1.25
2019-01-31T00:33:14.606Z,0.81
2019-01-31T00:35:50.671Z,0.94
2019-01-31T00:38:59.145Z,1.06
2019-01-31T00:41:35.017Z,0.81
2019-01-31T00:44:11.835Z,0.94
2019-01-31T00:47:04.089Z,0.81
2019-01-31T00:49:40.068Z,0.62
2019-01-31T00:52:18.777Z,0.81
2019-01-31T00:55:00.582Z,1.00
2019-01-31T00:57:42.370Z,0.81
2019-01-31T01:00:16.993Z,0.88
2019-01-31T01:05:00.669Z,0.94
2019-01-31T01:07:40.615Z,1.12
2019-01-31T01:11:16.422Z,0.88
2019-01-31T01:13:55.625Z,1.00
2019-01-31T01:16:31.531Z,0.75
2019-01-31T01:19:09.961Z,0.81
2019-01-31T01:21:47.612Z,1.12
2019-01-31T01:24:39.933Z,0.94
2019-01-31T01:27:22.621Z,0.88
2019-01-31T01:30:09.197Z,1.06
2019-01-31T01:32:50.891Z,1.00
2019-01-31T01:35:27.690Z,0.94
2019-01-31T01:38:20.241Z,0.88
2019-01-31T01:40:54.839Z,1.06
2019-01-31T01:43:37.142Z,0.81
2019-01-31T01:46:32.624Z,1.19
2019-01-31T01:49:10.558Z,1.19
2019-01-31T01:51:54.911Z,1.00
2019-01-31T01:54:36.782Z,1.00
2019-01-31T01:57:45.330Z,1.19
2019-01-31T02:00:20.610Z,1.19
2019-01-31T02:03:02.696Z,1.12
2019-01-31T02:05:42.876Z,0.88
2019-01-31T02:08:23.345Z,0.94
2019-01-31T02:11:00.781Z,1.06
2019-01-31T02:13:43.993Z,1.19
2019-01-31T02:16:31.127Z,1.19
2019-01-31T02:19:04.009Z,1.37
2019-01-31T02:23:48.093Z,1.06
2019-01-31T02:27:28.255Z,1.19
2019-01-31T02:30:14.439Z,0.75
2019-01-31T02:34:53.435Z,1.06
2019-01-31T02:37:33.842Z,0.81
2019-01-31T02:40:21.485Z,1.19
2019-01-31T02:42:55.269Z,0.88
2019-01-31T02:46:09.994Z,1.00
2019-01-31T02:48:45.634Z,1.00
2019-01-31T02:51:54.741Z,0.94
2019-01-31T02:54:36.920Z,0.88
2019-01-31T02:57:16.127Z,0.81
2019-01-31T02:59:54.343Z,0.88
2019-01-31T03:02:29.979Z,1.00
2019-01-31T03:05:23.453Z,1.25
2019-01-31T03:08:12.464Z,1.31
2019-01-31T03:10:44.529Z,1.12
2019-01-31T03:13:26.075Z,1.06
2019-01-31T03:16:04.382Z,1.31
2019-01-31T03:18:47.743Z,1.37
2019-01-31T03:21:23.012Z,1.06
2019-01-31T03:24:06.234Z,1.00
2019-01-31T03:27:22.324Z,1.00
2019-01-31T03:32:03.533Z,1.25
2019-01-31T03:34:46.954Z,1.19
2019-01-31T03:37:31.243Z,1.31
2019-01-31T03:40:13.162Z,1.31
2019-01-31T03:43:55.715Z,1.31
2019-01-31T03:46:41.583Z,1.06
2019-01-31T03:49:17.958Z,1.25
2019-01-31T03:51:57.036Z,1.31
2019-01-31T03:54:35.291Z,1.44
2019-01-31T03:59:18.576Z,1.12
2019-01-31T04:01:56.345Z,1.31
2019-01-31T04:04:28.292Z,1.25
2019-01-31T04:06:56.055Z,1.25
2019-01-31T04:09:23.107Z,1.31
2019-01-31T04:11:50.150Z,1.44
2019-01-31T04:14:17.202Z,1.12
2019-01-31T04:16:44.404Z,1.12
2019-01-31T04:19:11.437Z,1.50
2019-01-31T04:21:38.448Z,1.62
2019-01-31T04:24:05.497Z,1.31
2019-01-31T04:26:32.564Z,1.31
2019-01-31T04:28:59.591Z,1.50
2019-01-31T04:31:26.578Z,1.19
2019-01-31T04:33:53.510Z,1.37
2019-01-31T04:36:20.525Z,1.44
2019-01-31T04:38:47.470Z,1.31
2019-01-31T04:41:14.414Z,1.31
2019-01-31T04:43:41.431Z,1.25
2019-01-31T04:46:08.441Z,1.06
2019-01-31T04:48:38.599Z,1.19
2019-01-31T04:51:05.725Z,1.06
2019-01-31T04:53:32.763Z,1.19
2019-01-31T04:55:59.703Z,1.25
2019-01-31T04:58:26.703Z,1.00
2019-01-31T05:00:53.728Z,1.31
2019-01-31T05:03:20.934Z,1.44
2019-01-31T05:05:47.928Z,1.50
2019-01-31T05:08:14.973Z,1.12
2019-01-31T05:10:43.390Z,1.50
2019-01-31T05:13:09.089Z,1.44
2019-01-31T05:15:36.091Z,1.25
2019-01-31T05:18:03.134Z,1.31
2019-01-31T05:20:30.077Z,1.19
2019-01-31T05:22:57.025Z,1.25
2019-01-31T05:25:24.643Z,1.44
2019-01-31T05:27:51.634Z,1.31
2019-01-31T05:30:20.978Z,1.37
2019-01-31T05:32:48.865Z,1.56
2019-01-31T05:35:15.903Z,1.50
2019-01-31T05:37:42.828Z,1.44
2019-01-31T05:40:11.573Z,1.31
2019-01-31T05:42:38.579Z,1.44
2019-01-31T05:45:08.018Z,1.31
2019-01-31T05:47:35.057Z,1.31
2019-01-31T05:50:02.042Z,1.50
2019-01-31T05:52:29.026Z,1.75
2019-01-31T05:54:56.090Z,1.25
2019-01-31T05:57:23.158Z,1.06
2019-01-31T05:59:50.171Z,1.37
2019-01-31T06:02:17.158Z,1.56
2019-01-31T06:04:44.116Z,1.44
2019-01-31T06:07:11.601Z,1.50
2019-01-31T06:09:38.307Z,1.00
2019-01-31T06:12:05.281Z,1.25
2019-01-31T06:14:32.233Z,1.37
2019-01-31T06:16:59.228Z,1.19
2019-01-31T06:19:26.180Z,1.12
2019-01-31T06:21:53.303Z,1.50
2019-01-31T06:24:20.405Z,1.37
2019-01-31T06:26:47.389Z,1.37
2019-01-31T06:29:14.322Z,1.37
2019-01-31T06:31:41.304Z,1.37
2019-01-31T06:34:08.394Z,1.12
2019-01-31T06:36:35.543Z,1.25
2019-01-31T06:39:02.686Z,1.25
2019-01-31T06:41:29.726Z,1.12
2019-01-31T06:43:56.694Z,1.44
2019-01-31T06:46:23.718Z,1.31
2019-01-31T06:48:50.754Z,1.50
2019-01-31T06:51:17.780Z,1.19
2019-01-31T06:53:44.899Z,1.75
2019-01-31T06:56:11.883Z,1.69
2019-01-31T06:58:41.080Z,1.25
2019-01-31T07:01:06.914Z,1.69
2019-01-31T07:03:33.909Z,1.56
2019-01-31T07:06:00.921Z,1.31
2019-01-31T07:08:27.947Z,1.69
2019-01-31T07:10:54.928Z,1.56
2019-01-31T07:13:22.206Z,1.87
2019-01-31T07:15:49.211Z,1.56
2019-01-31T07:18:16.267Z,1.56
2019-01-31T07:20:43.324Z,1.69
2019-01-31T07:23:10.330Z,1.56
2019-01-31T07:25:37.370Z,1.69
2019-01-31T07:28:04.420Z,1.37
2019-01-31T07:30:31.439Z,1.75
2019-01-31T07:32:58.431Z,1.69
2019-01-31T07:35:25.603Z,1.75
2019-01-31T07:37:53.172Z,1.50
2019-01-31T07:40:20.020Z,1.56
2019-01-31T07:42:47.027Z,1.31
2019-01-31T07:45:20.573Z,1.44
2019-01-31T07:47:47.535Z,1.50
2019-01-31T07:50:14.554Z,1.87
2019-01-31T07:52:41.561Z,1.56
2019-01-31T07:55:10.016Z,1.44
2019-01-31T07:57:37.087Z,1.62
2019-01-31T08:00:05.442Z,1.50
2019-01-31T08:02:32.655Z,1.25
2019-01-31T08:04:59.735Z,1.62
2019-01-31T08:07:28.749Z,1.69
2019-01-31T08:09:56.026Z,1.62
2019-01-31T08:12:22.467Z,1.56
2019-01-31T08:14:49.446Z,1.56
2019-01-31T08:17:16.398Z,1.62
2019-01-31T08:19:43.365Z,1.50
2019-01-31T08:22:10.350Z,1.31
2019-01-31T08:24:37.306Z,1.75
2019-01-31T08:27:04.295Z,1.50
2019-01-31T08:29:31.263Z,1.62
2019-01-31T08:31:58.249Z,1.75
2019-01-31T08:34:26.309Z,1.81
2019-01-31T08:36:53.289Z,1.87
2019-01-31T08:39:20.374Z,1.75
2019-01-31T08:41:47.346Z,1.81
2019-01-31T08:44:14.303Z,1.94
2019-01-31T08:46:41.296Z,1.75
2019-01-31T08:49:08.387Z,1.81
2019-01-31T08:51:35.366Z,2.00
2019-01-31T08:54:02.396Z,1.81
2019-01-31T08:56:29.394Z,2.12
2019-01-31T08:58:56.414Z,1.87
2019-01-31T09:01:23.726Z,1.87
2019-01-31T09:03:50.701Z,1.94
2019-01-31T09:06:17.904Z,2.06
2019-01-31T09:08:45.424Z,1.94
2019-01-31T09:11:12.595Z,1.87
2019-01-31T09:13:40.655Z,1.87
2019-01-31T09:16:07.810Z,2.06
2019-01-31T09:18:34.933Z,1.94
2019-01-31T09:21:19.762Z,1.75
2019-01-31T09:26:02.215Z,1.87
2019-01-31T09:28:40.443Z,2.12
2019-01-31T09:31:16.898Z,2.00
2019-01-31T09:35:56.559Z,1.87
2019-01-31T09:38:36.986Z,2.12
2019-01-31T09:41:15.997Z,2.19
2019-01-31T09:45:56.668Z,2.25
2019-01-31T09:48:38.418Z,2.44
2019-01-31T09:51:15.324Z,2.69
2019-01-31T09:55:00.749Z,2.56
2019-01-31T09:58:16.388Z,2.62
2019-01-31T10:00:58.132Z,2.81
2019-01-31T10:03:54.389Z,2.75
2019-01-31T10:06:36.901Z,2.50
2019-01-31T10:09:18.035Z,2.75
2019-01-31T10:12:54.853Z,3.00
2019-01-31T10:17:57.784Z,3.06
2019-01-31T10:22:44.578Z,3.25
2019-01-31T10:25:18.718Z,3.12
2019-01-31T10:29:15.963Z,3.12
2019-01-31T10:31:58.520Z,3.12
2019-01-31T10:37:39.984Z,3.06
2019-01-31T10:40:23.892Z,3.12
2019-01-31T10:43:09.330Z,3.06
2019-01-31T10:45:48.562Z,3.31
2019-01-31T10:48:27.993Z,3.25
2019-01-31T10:51:39.554Z,3.25
2019-01-31T10:54:14.349Z,3.31
2019-01-31T10:57:11.083Z,3.37
2019-01-31T10:59:48.921Z,3.44
2019-01-31T11:02:32.189Z,3.25
2019-01-31T11:05:17.441Z,3.44
2019-01-31T11:07:59.958Z,3.50
2019-01-31T11:10:42.055Z,3.62
2019-01-31T11:13:23.286Z,3.56
2019-01-31T11:16:15.924Z,3.37
2019-01-31T11:19:01.565Z,3.44
2019-01-31T11:22:12.782Z,3.56
2019-01-31T11:24:48.142Z,3.62
2019-01-31T11:28:31.991Z,3.62
2019-01-31T11:34:32.443Z,3.56
2019-01-31T11:37:02.310Z,3.75
2019-01-31T11:41:48.660Z,3.87
2019-01-31T11:44:47.106Z,3.81
2019-01-31T11:47:42.521Z,4.00
2019-01-31T11:50:27.533Z,4.00
2019-01-31T11:53:09.745Z,4.25
2019-01-31T11:56:48.905Z,4.12
2019-01-31T11:59:16.003Z,4.25
2019-01-31T12:01:43.149Z,4.19
2019-01-31T12:04:12.545Z,4.37
2019-01-31T12:06:39.652Z,4.44
2019-01-31T12:09:11.362Z,4.25
2019-01-31T12:11:38.541Z,4.37
2019-01-31T12:14:05.642Z,4.69
2019-01-31T12:16:32.761Z,4.56
2019-01-31T12:18:59.982Z,4.50
2019-01-31T12:21:27.542Z,4.44
2019-01-31T12:23:54.664Z,4.69
2019-01-31T12:26:21.826Z,4.44
2019-01-31T12:28:50.995Z,4.44
2019-01-31T12:31:16.038Z,4.37
2019-01-31T12:33:43.288Z,4.75
2019-01-31T12:36:10.485Z,4.75
2019-01-31T12:38:37.723Z,4.69
2019-01-31T12:41:05.019Z,4.75
2019-01-31T12:43:35.322Z,4.75
2019-01-31T12:46:00.025Z,4.94
2019-01-31T12:48:27.110Z,4.81
2019-01-31T12:50:54.228Z,4.94
2019-01-31T12:53:21.348Z,4.62
2019-01-31T12:55:48.429Z,4.69
2019-01-31T12:58:15.505Z,4.94
2019-01-31T13:00:42.590Z,4.87
2019-01-31T13:03:09.714Z,4.81
2019-01-31T13:05:36.851Z,4.75
2019-01-31T13:08:04.478Z,4.94
2019-01-31T13:10:31.686Z,4.87
2019-01-31T13:12:58.807Z,5.12
2019-01-31T13:15:26.032Z,4.87
2019-01-31T13:17:54.217Z,4.81
2019-01-31T13:40:32.680Z,4.87
2019-01-31T13:42:59.854Z,4.62
2019-01-31T13:45:33.285Z,4.56
2019-01-31T13:48:02.898Z,4.94
2019-01-31T13:50:30.090Z,4.69
2019-01-31T13:52:57.290Z,4.62
2019-01-31T13:55:26.460Z,4.69
2019-01-31T13:57:54.465Z,4.75
2019-01-31T14:00:21.615Z,4.75
2019-01-31T14:02:48.834Z,4.69
2019-01-31T14:05:15.978Z,4.62
2019-01-31T14:07:43.165Z,4.94
2019-01-31T14:10:12.753Z,5.00
2019-01-31T14:12:39.853Z,5.00
2019-01-31T14:15:07.542Z,4.94
2019-01-31T14:17:34.731Z,5.06
2019-01-31T14:20:01.845Z,4.81
2019-01-31T14:22:29.035Z,4.87
2019-01-31T14:24:56.192Z,4.87
2019-01-31T14:27:23.412Z,4.81
2019-01-31T14:30:10.163Z,4.69
2019-01-31T14:32:37.359Z,4.62
2019-01-31T14:35:05.222Z,4.75
2019-01-31T14:37:33.166Z,4.62
2019-01-31T14:40:00.251Z,4.81
2019-01-31T14:42:28.188Z,4.56
2019-01-31T14:44:55.380Z,4.87
2019-01-31T14:47:22.500Z,4.87
2019-01-31T14:49:49.635Z,4.56
2019-01-31T14:52:16.778Z,4.69
2019-01-31T14:54:43.863Z,4.44
2019-01-31T14:57:11.423Z,4.69
2019-01-31T14:59:38.563Z,4.62
2019-01-31T15:02:05.687Z,4.75
2019-01-31T15:04:32.842Z,4.56
2019-01-31T15:07:00.526Z,4.44
2019-01-31T15:09:27.734Z,4.56
2019-01-31T15:11:54.905Z,4.31
2019-01-31T15:14:31.574Z,4.50
2019-01-31T15:16:49.106Z,4.44
2019-01-31T15:19:16.417Z,4.56
2019-01-31T15:21:44.192Z,4.50
2019-01-31T15:24:12.002Z,4.37
2019-01-31T15:26:39.100Z,4.37
2019-01-31T15:29:06.225Z,4.75
2019-01-31T15:31:33.347Z,4.37
2019-01-31T15:34:00.537Z,4.37
2019-01-31T15:36:27.605Z,4.31
2019-01-31T15:38:54.689Z,4.44
2019-01-31T15:41:21.952Z,4.37
2019-01-31T15:43:49.171Z,4.44
2019-01-31T15:46:18.033Z,4.44
2019-01-31T15:48:43.351Z,4.56
2019-01-31T15:51:10.522Z,4.19
2019-01-31T15:53:37.702Z,4.25
2019-01-31T15:56:06.528Z,4.31
2019-01-31T15:58:33.969Z,4.00
2019-01-31T16:01:01.086Z,4.25
2019-01-31T16:03:28.186Z,4.12
2019-01-31T16:05:56.178Z,4.19
2019-01-31T16:08:23.591Z,3.87
2019-01-31T16:10:50.797Z,4.06
2019-01-31T16:13:17.896Z,4.12
2019-01-31T16:15:45.408Z,4.25
2019-01-31T16:18:13.026Z,4.62
2019-01-31T16:20:40.199Z,4.50
2019-01-31T16:23:07.643Z,4.19
2019-01-31T16:25:34.744Z,4.50
2019-01-31T16:28:02.135Z,4.69
2019-01-31T16:30:29.298Z,4.75
2019-01-31T16:32:56.711Z,4.44
2019-01-31T16:35:24.891Z,4.19
2019-01-31T16:37:53.272Z,4.12
2019-01-31T16:40:21.267Z,3.75
2019-01-31T16:42:48.478Z,3.94
2019-01-31T16:45:15.830Z,3.75
2019-01-31T16:47:43.113Z,3.75
2019-01-31T16:50:12.208Z,3.81
2019-01-31T16:52:39.397Z,3.37
2019-01-31T16:55:08.394Z,3.62
2019-01-31T16:57:35.664Z,3.75
2019-01-31T17:00:03.448Z,3.62
2019-01-31T17:02:30.740Z,3.37
2019-01-31T17:04:58.124Z,3.50
2019-01-31T17:07:25.608Z,3.50
2019-01-31T17:09:53.802Z,3.37
2019-01-31T17:12:23.315Z,3.50
2019-01-31T17:14:50.701Z,3.44
2019-01-31T17:17:18.513Z,3.25
2019-01-31T17:19:46.039Z,3.37
2019-01-31T17:22:13.423Z,3.25
2019-01-31T17:24:40.620Z,3.25
2019-01-31T17:27:08.117Z,3.25
2019-01-31T17:29:35.381Z,3.06
2019-01-31T17:32:02.662Z,3.06
2019-01-31T17:34:31.252Z,3.25
2019-01-31T17:36:58.460Z,2.87
2019-01-31T17:39:27.448Z,2.81
2019-01-31T17:41:54.600Z,2.81
2019-01-31T17:44:22.598Z,2.81
2019-01-31T17:46:49.908Z,2.75
2019-01-31T17:49:17.370Z,2.62
2019-01-31T17:51:44.970Z,2.94
2019-01-31T17:54:12.234Z,2.62
2019-01-31T17:56:39.625Z,2.50
2019-01-31T17:59:07.908Z,2.50
2019-01-31T18:01:35.241Z,2.56
2019-01-31T18:04:02.887Z,2.12
2019-01-31T18:06:30.068Z,2.56
2019-01-31T18:08:57.687Z,2.37
2019-01-31T18:11:24.939Z,2.62
2019-01-31T18:13:53.626Z,2.69
2019-01-31T18:16:21.522Z,2.44
2019-01-31T18:18:48.695Z,2.25
2019-01-31T18:21:16.108Z,2.56
2019-01-31T18:23:45.297Z,2.50
2019-01-31T18:26:12.558Z,2.25
2019-01-31T18:28:40.040Z,2.37
2019-01-31T18:31:08.240Z,2.37
2019-01-31T18:38:30.286Z,2.00
2019-01-31T18:40:57.671Z,2.31
2019-01-31T18:43:25.049Z,2.19
2019-01-31T18:45:53.699Z,2.25
2019-01-31T18:48:19.633Z,2.25
2019-01-31T18:50:46.819Z,2.06
2019-01-31T18:53:14.115Z,2.31
2019-01-31T18:55:42.601Z,1.94
2019-01-31T18:58:10.182Z,1.94
2019-01-31T19:00:39.953Z,2.19
2019-01-31T19:03:07.348Z,2.12
2019-01-31T19:05:34.544Z,2.19
2019-01-31T19:08:05.453Z,2.00
2019-01-31T19:10:42.704Z,2.06
2019-01-31T19:13:01.192Z,2.12
2019-01-31T19:15:29.116Z,2.37
2019-01-31T19:18:05.385Z,2.12
2019-01-31T19:20:28.071Z,2.00
2019-01-31T19:23:01.030Z,2.00
2019-01-31T19:25:32.151Z,2.12
2019-01-31T19:28:04.804Z,1.87
2019-01-31T19:30:34.496Z,2.25
2019-01-31T19:33:03.667Z,1.69
2019-01-31T19:35:31.960Z,1.69
2019-01-31T19:38:02.134Z,1.75
2019-01-31T19:40:28.937Z,2.06
2019-01-31T19:42:56.410Z,1.75
2019-01-31T19:45:28.222Z,1.69
2019-01-31T19:47:55.586Z,1.62
2019-01-31T19:50:22.968Z,1.69
2019-01-31T19:52:54.498Z,2.06
2019-01-31T19:55:21.936Z,1.94
2019-01-31T19:57:49.235Z,1.75
2019-01-31T20:00:18.527Z,1.81
2019-01-31T20:02:45.893Z,1.94
2019-01-31T20:05:13.479Z,2.19
2019-01-31T20:07:40.779Z,1.69
2019-01-31T20:10:08.837Z,2.00
2019-01-31T20:12:36.565Z,1.81
2019-01-31T20:15:05.631Z,1.94
2019-01-31T20:17:32.917Z,1.75
2019-01-31T20:20:01.095Z,1.69
2019-01-31T20:22:28.479Z,1.69
2019-01-31T20:24:59.305Z,2.06
2019-01-31T20:27:26.769Z,1.94
2019-01-31T20:29:54.547Z,1.69
2019-01-31T20:32:22.129Z,1.69
2019-01-31T20:34:49.512Z,1.56
2019-01-31T20:37:16.934Z,1.75
2019-01-31T20:39:44.228Z,1.44
2019-01-31T20:42:11.474Z,1.44
2019-01-31T20:44:38.604Z,1.44
2019-01-31T20:47:05.654Z,1.37
2019-01-31T20:49:33.650Z,1.37
2019-01-31T20:52:00.762Z,1.37
2019-01-31T20:54:28.120Z,1.62
2019-01-31T20:56:55.199Z,1.31
2019-01-31T20:59:22.297Z,1.69
2019-01-31T21:01:49.470Z,1.56
2019-01-31T21:04:17.087Z,1.44
2019-01-31T21:06:44.190Z,1.69
2019-01-31T21:09:11.566Z,1.56
2019-01-31T21:11:38.635Z,1.44
2019-01-31T21:14:06.320Z,1.37
2019-01-31T21:16:33.106Z,1.69
2019-01-31T21:19:02.231Z,1.44
2019-01-31T21:21:29.397Z,1.37
2019-01-31T21:23:56.427Z,1.44
2019-01-31T21:26:24.825Z,1.25
2019-01-31T21:28:50.596Z,1.37
2019-01-31T21:31:18.592Z,1.25
2019-01-31T21:33:45.616Z,1.44
2019-01-31T21:36:12.646Z,1.19
2019-01-31T21:38:39.883Z,1.06
2019-01-31T21:41:06.987Z,1.25
2019-01-31T21:43:35.022Z,1.44
2019-01-31T21:46:02.344Z,1.25
2019-01-31T21:48:30.490Z,1.06
2019-01-31T21:50:56.477Z,1.06
2019-01-31T21:53:23.528Z,1.31
2019-01-31T21:55:50.752Z,1.31
2019-01-31T21:58:17.956Z,1.12
2019-01-31T22:00:45.069Z,1.00
2019-01-31T22:03:12.119Z,1.25
2019-01-31T22:05:39.189Z,1.12
2019-01-31T22:08:06.237Z,0.94
2019-01-31T22:10:33.287Z,0.88
2019-01-31T22:13:02.774Z,1.12
2019-01-31T22:15:29.066Z,1.12
2019-01-31T22:17:58.252Z,0.88
2019-01-31T22:20:24.344Z,0.81
2019-01-31T22:22:51.365Z,0.94
2019-01-31T22:25:19.302Z,0.81
2019-01-31T22:27:46.340Z,0.81
2019-01-31T22:30:16.192Z,1.12
2019-01-31T22:32:43.280Z,0.62
2019-01-31T22:35:10.325Z,0.88
2019-01-31T22:37:37.307Z,0.62
2019-01-31T22:40:04.896Z,0.88
2019-01-31T22:42:31.846Z,0.94
2019-01-31T22:44:58.812Z,0.88
2019-01-31T22:47:26.571Z,1.00
2019-01-31T22:49:52.848Z,0.81
2019-01-31T22:52:19.901Z,0.94
2019-01-31T22:54:47.443Z,1.00
2019-01-31T22:57:14.437Z,0.75
2019-01-31T22:59:41.460Z,1.00
2019-01-31T23:02:11.913Z,1.06
2019-01-31T23:04:38.913Z,0.88
2019-01-31T23:07:05.937Z,0.62
2019-01-31T23:09:32.944Z,0.62
2019-01-31T23:11:59.888Z,0.69
2019-01-31T23:14:26.850Z,0.88
2019-01-31T23:16:53.873Z,0.69
2019-01-31T23:19:20.796Z,0.56
2019-01-31T23:21:47.782Z,0.37
2019-01-31T23:24:14.752Z,0.50
2019-01-31T23:26:42.252Z,0.44
2019-01-31T23:29:09.211Z,0.56
2019-01-31T23:31:36.167Z,0.31
2019-01-31T23:34:03.553Z,0.37
2019-01-31T23:36:30.580Z,0.56
2019-01-31T23:38:57.541Z,0.81
2019-01-31T23:41:24.521Z,0.44
2019-01-31T23:43:51.456Z,0.62
2019-01-31T23:46:18.447Z,0.56
2019-01-31T23:48:45.397Z,0.75
2019-01-31T23:51:12.338Z,0.69
2019-01-31T23:53:39.309Z,0.88
2019-01-31T23:56:06.316Z,0.69
2019-01-31T23:58:33.221Z,0.56
